sensor_id;sensor_type;location;lat;lon;timestamp;temperature;humidity
49222;DHT22;35047;37.588;-122.048;2022-11-15T00:00:31;17.10;75.00
49222;DHT22;35047;37.588;-122.048;2022-11-15T00:02:58;17.00;75.00
49222;DHT22;35047;37.588;-122.048;2022-11-15T00:05:24;17.00;75.40
49222;DHT22;35047;37.588;-122.048;2022-11-15T00:07:52;17.00;75.50
49222;DHT22;35047;37.588;-122.048;2022-11-15T00:10:19;16.90;75.30
49222;DHT22;35047;37.588;-122.048;2022-11-15T00:12:46;16.80;75.40
49222;DHT22;35047;37.588;-122.048;2022-11-15T00:15:13;16.70;75.50
49222;DHT22;35047;37.588;-122.048;2022-11-15T00:17:39;16.70;75.60
49222;DHT22;35047;37.588;-122.048;2022-11-15T00:20:07;16.60;75.60
49222;DHT22;35047;37.588;-122.048;2022-11-15T00:22:34;16.50;76.10
49222;DHT22;35047;37.588;-122.048;2022-11-15T00:25:01;16.40;76.50
49222;DHT22;35047;37.588;-122.048;2022-11-15T00:27:28;16.40;76.90
49222;DHT22;35047;37.588;-122.048;2022-11-15T00:29:54;16.30;77.20
49222;DHT22;35047;37.588;-122.048;2022-11-15T00:32:21;16.20;77.40
49222;DHT22;35047;37.588;-122.048;2022-11-15T00:34:48;16.10;77.80
49222;DHT22;35047;37.588;-122.048;2022-11-15T00:37:15;16.10;78.10
49222;DHT22;35047;37.588;-122.048;2022-11-15T00:39:42;16.00;78.50
49222;DHT22;35047;37.588;-122.048;2022-11-15T00:42:09;16.00;78.90
49222;DHT22;35047;37.588;-122.048;2022-11-15T00:44:35;15.90;79.30
49222;DHT22;35047;37.588;-122.048;2022-11-15T00:47:02;15.90;79.80
49222;DHT22;35047;37.588;-122.048;2022-11-15T00:49:29;15.90;80.30
49222;DHT22;35047;37.588;-122.048;2022-11-15T00:51:57;15.80;80.70
49222;DHT22;35047;37.588;-122.048;2022-11-15T00:54:23;15.70;81.80
49222;DHT22;35047;37.588;-122.048;2022-11-15T00:56:50;15.70;81.80
49222;DHT22;35047;37.588;-122.048;2022-11-15T00:59:16;15.60;82.20
49222;DHT22;35047;37.588;-122.048;2022-11-15T01:01:44;15.50;82.80
49222;DHT22;35047;37.588;-122.048;2022-11-15T01:04:11;15.40;83.30
49222;DHT22;35047;37.588;-122.048;2022-11-15T01:06:38;15.40;83.90
49222;DHT22;35047;37.588;-122.048;2022-11-15T01:09:05;15.30;84.40
49222;DHT22;35047;37.588;-122.048;2022-11-15T01:11:32;15.20;84.90
49222;DHT22;35047;37.588;-122.048;2022-11-15T01:13:58;15.10;85.40
49222;DHT22;35047;37.588;-122.048;2022-11-15T01:16:26;15.00;85.90
49222;DHT22;35047;37.588;-122.048;2022-11-15T01:18:52;14.90;86.50
49222;DHT22;35047;37.588;-122.048;2022-11-15T01:21:20;14.90;87.00
49222;DHT22;35047;37.588;-122.048;2022-11-15T01:23:46;14.80;87.30
49222;DHT22;35047;37.588;-122.048;2022-11-15T01:26:15;14.70;87.70
49222;DHT22;35047;37.588;-122.048;2022-11-15T01:28:42;14.60;88.10
49222;DHT22;35047;37.588;-122.048;2022-11-15T01:31:11;14.50;88.60
49222;DHT22;35047;37.588;-122.048;2022-11-15T01:33:39;14.40;89.00
49222;DHT22;35047;37.588;-122.048;2022-11-15T01:36:10;14.40;89.60
49222;DHT22;35047;37.588;-122.048;2022-11-15T01:38:38;14.30;90.00
49222;DHT22;35047;37.588;-122.048;2022-11-15T01:41:06;14.20;90.20
49222;DHT22;35047;37.588;-122.048;2022-11-15T01:43:35;14.10;90.40
49222;DHT22;35047;37.588;-122.048;2022-11-15T01:46:27;14.00;90.60
49222;DHT22;35047;37.588;-122.048;2022-11-15T01:48:57;14.00;90.80
49222;DHT22;35047;37.588;-122.048;2022-11-15T01:51:28;13.90;90.80
49222;DHT22;35047;37.588;-122.048;2022-11-15T01:53:58;13.90;91.00
49222;DHT22;35047;37.588;-122.048;2022-11-15T01:56:29;13.80;90.30
49222;DHT22;35047;37.588;-122.048;2022-11-15T01:58:58;13.80;90.80
49222;DHT22;35047;37.588;-122.048;2022-11-15T02:01:28;13.70;90.90
49222;DHT22;35047;37.588;-122.048;2022-11-15T02:04:04;13.70;91.00
49222;DHT22;35047;37.588;-122.048;2022-11-15T02:06:32;13.70;91.10
49222;DHT22;35047;37.588;-122.048;2022-11-15T02:09:00;13.60;90.90
49222;DHT22;35047;37.588;-122.048;2022-11-15T02:11:28;13.50;90.30
49222;DHT22;35047;37.588;-122.048;2022-11-15T02:13:56;13.50;90.50
49222;DHT22;35047;37.588;-122.048;2022-11-15T02:16:39;13.50;90.90
49222;DHT22;35047;37.588;-122.048;2022-11-15T02:19:29;13.50;91.10
49222;DHT22;35047;37.588;-122.048;2022-11-15T02:27:56;13.20;91.20
49222;DHT22;35047;37.588;-122.048;2022-11-15T02:30:45;13.20;91.40
49222;DHT22;35047;37.588;-122.048;2022-11-15T02:33:17;13.10;91.40
49222;DHT22;35047;37.588;-122.048;2022-11-15T02:36:01;13.00;91.50
49222;DHT22;35047;37.588;-122.048;2022-11-15T02:38:40;12.90;91.60
49222;DHT22;35047;37.588;-122.048;2022-11-15T02:41:15;12.80;91.70
49222;DHT22;35047;37.588;-122.048;2022-11-15T02:44:12;12.80;91.90
49222;DHT22;35047;37.588;-122.048;2022-11-15T02:46:47;12.70;92.10
49222;DHT22;35047;37.588;-122.048;2022-11-15T02:49:35;12.60;92.20
49222;DHT22;35047;37.588;-122.048;2022-11-15T02:52:03;12.50;92.30
49222;DHT22;35047;37.588;-122.048;2022-11-15T02:54:32;12.50;92.50
49222;DHT22;35047;37.588;-122.048;2022-11-15T02:57:04;12.40;92.60
49222;DHT22;35047;37.588;-122.048;2022-11-15T03:08:10;12.20;93.20
49222;DHT22;35047;37.588;-122.048;2022-11-15T03:11:11;12.10;93.40
49222;DHT22;35047;37.588;-122.048;2022-11-15T03:16:49;12.00;93.60
49222;DHT22;35047;37.588;-122.048;2022-11-15T03:19:30;11.90;93.80
49222;DHT22;35047;37.588;-122.048;2022-11-15T03:22:02;11.80;93.90
49222;DHT22;35047;37.588;-122.048;2022-11-15T03:24:34;11.80;94.00
49222;DHT22;35047;37.588;-122.048;2022-11-15T03:27:07;11.70;94.20
49222;DHT22;35047;37.588;-122.048;2022-11-15T03:29:43;11.70;94.30
49222;DHT22;35047;37.588;-122.048;2022-11-15T03:32:14;11.60;94.40
49222;DHT22;35047;37.588;-122.048;2022-11-15T03:34:58;11.60;94.50
49222;DHT22;35047;37.588;-122.048;2022-11-15T03:40:43;11.50;94.80
49222;DHT22;35047;37.588;-122.048;2022-11-15T03:46:55;11.40;95.10
49222;DHT22;35047;37.588;-122.048;2022-11-15T03:49:10;11.30;95.30
49222;DHT22;35047;37.588;-122.048;2022-11-15T03:51:38;11.30;95.30
49222;DHT22;35047;37.588;-122.048;2022-11-15T03:54:05;11.20;95.40
49222;DHT22;35047;37.588;-122.048;2022-11-15T03:56:32;11.20;95.50
49222;DHT22;35047;37.588;-122.048;2022-11-15T03:58:58;11.10;95.60
49222;DHT22;35047;37.588;-122.048;2022-11-15T04:01:25;11.10;95.70
49222;DHT22;35047;37.588;-122.048;2022-11-15T04:03:52;11.10;95.80
49222;DHT22;35047;37.588;-122.048;2022-11-15T04:06:18;11.10;95.90
49222;DHT22;35047;37.588;-122.048;2022-11-15T04:08:46;11.00;96.00
49222;DHT22;35047;37.588;-122.048;2022-11-15T04:11:13;11.10;96.00
49222;DHT22;35047;37.588;-122.048;2022-11-15T04:13:39;11.00;95.90
49222;DHT22;35047;37.588;-122.048;2022-11-15T04:16:06;11.10;95.70
49222;DHT22;35047;37.588;-122.048;2022-11-15T04:18:32;11.10;95.60
49222;DHT22;35047;37.588;-122.048;2022-11-15T04:20:59;11.10;95.60
49222;DHT22;35047;37.588;-122.048;2022-11-15T04:23:44;11.20;95.60
49222;DHT22;35047;37.588;-122.048;2022-11-15T04:26:30;11.30;95.40
49222;DHT22;35047;37.588;-122.048;2022-11-15T04:28:57;11.30;95.40
49222;DHT22;35047;37.588;-122.048;2022-11-15T04:31:42;11.30;95.70
49222;DHT22;35047;37.588;-122.048;2022-11-15T04:34:09;11.30;95.60
49222;DHT22;35047;37.588;-122.048;2022-11-15T04:36:36;11.30;95.70
49222;DHT22;35047;37.588;-122.048;2022-11-15T04:39:21;11.30;95.80
49222;DHT22;35047;37.588;-122.048;2022-11-15T04:41:48;11.20;95.90
49222;DHT22;35047;37.588;-122.048;2022-11-15T04:44:17;11.20;96.10
49222;DHT22;35047;37.588;-122.048;2022-11-15T04:46:43;11.20;96.20
49222;DHT22;35047;37.588;-122.048;2022-11-15T04:49:10;11.10;96.30
49222;DHT22;35047;37.588;-122.048;2022-11-15T04:51:37;11.10;96.40
49222;DHT22;35047;37.588;-122.048;2022-11-15T04:54:04;11.10;96.40
49222;DHT22;35047;37.588;-122.048;2022-11-15T04:56:31;11.10;96.50
49222;DHT22;35047;37.588;-122.048;2022-11-15T04:58:57;11.00;96.60
49222;DHT22;35047;37.588;-122.048;2022-11-15T05:01:23;11.00;96.70
49222;DHT22;35047;37.588;-122.048;2022-11-15T05:03:51;10.90;96.70
49222;DHT22;35047;37.588;-122.048;2022-11-15T05:06:37;10.90;96.80
49222;DHT22;35047;37.588;-122.048;2022-11-15T05:09:04;10.80;96.90
49222;DHT22;35047;37.588;-122.048;2022-11-15T05:11:31;10.80;97.00
49222;DHT22;35047;37.588;-122.048;2022-11-15T05:13:58;10.80;97.10
49222;DHT22;35047;37.588;-122.048;2022-11-15T05:16:25;10.80;97.10
49222;DHT22;35047;37.588;-122.048;2022-11-15T05:18:55;10.70;97.20
49222;DHT22;35047;37.588;-122.048;2022-11-15T05:21:23;10.70;97.30
49222;DHT22;35047;37.588;-122.048;2022-11-15T05:23:49;10.70;97.30
49222;DHT22;35047;37.588;-122.048;2022-11-15T05:26:17;10.60;97.40
49222;DHT22;35047;37.588;-122.048;2022-11-15T05:28:44;10.60;97.50
49222;DHT22;35047;37.588;-122.048;2022-11-15T05:31:14;10.50;97.50
49222;DHT22;35047;37.588;-122.048;2022-11-15T05:33:42;10.50;97.70
49222;DHT22;35047;37.588;-122.048;2022-11-15T05:38:48;10.40;97.80
49222;DHT22;35047;37.588;-122.048;2022-11-15T05:41:18;10.40;97.90
49222;DHT22;35047;37.588;-122.048;2022-11-15T05:43:47;10.40;98.00
49222;DHT22;35047;37.588;-122.048;2022-11-15T05:46:16;10.40;98.10
49222;DHT22;35047;37.588;-122.048;2022-11-15T05:48:46;10.30;98.20
49222;DHT22;35047;37.588;-122.048;2022-11-15T05:51:15;10.30;98.30
49222;DHT22;35047;37.588;-122.048;2022-11-15T05:53:42;10.30;98.30
49222;DHT22;35047;37.588;-122.048;2022-11-15T05:56:09;10.30;98.50
49222;DHT22;35047;37.588;-122.048;2022-11-15T05:58:37;10.30;98.60
49222;DHT22;35047;37.588;-122.048;2022-11-15T06:01:04;10.20;98.70
49222;DHT22;35047;37.588;-122.048;2022-11-15T06:03:31;10.20;98.80
49222;DHT22;35047;37.588;-122.048;2022-11-15T06:05:57;10.30;98.90
49222;DHT22;35047;37.588;-122.048;2022-11-15T06:08:24;10.30;98.90
49222;DHT22;35047;37.588;-122.048;2022-11-15T06:10:51;10.30;98.90
49222;DHT22;35047;37.588;-122.048;2022-11-15T06:13:17;10.30;99.00
49222;DHT22;35047;37.588;-122.048;2022-11-15T06:15:44;10.30;99.00
49222;DHT22;35047;37.588;-122.048;2022-11-15T06:18:11;10.30;99.10
49222;DHT22;35047;37.588;-122.048;2022-11-15T06:20:39;10.30;99.20
49222;DHT22;35047;37.588;-122.048;2022-11-15T06:23:06;10.30;99.30
49222;DHT22;35047;37.588;-122.048;2022-11-15T06:25:33;10.30;99.30
49222;DHT22;35047;37.588;-122.048;2022-11-15T06:28:00;10.30;99.40
49222;DHT22;35047;37.588;-122.048;2022-11-15T06:30:27;10.30;99.40
49222;DHT22;35047;37.588;-122.048;2022-11-15T06:33:04;10.30;99.50
49222;DHT22;35047;37.588;-122.048;2022-11-15T06:35:34;10.40;99.60
49222;DHT22;35047;37.588;-122.048;2022-11-15T06:38:09;10.30;99.60
49222;DHT22;35047;37.588;-122.048;2022-11-15T06:40:38;10.30;99.70
49222;DHT22;35047;37.588;-122.048;2022-11-15T06:43:05;10.30;99.80
49222;DHT22;35047;37.588;-122.048;2022-11-15T06:45:33;10.30;99.80
49222;DHT22;35047;37.588;-122.048;2022-11-15T06:48:01;10.30;99.90
49222;DHT22;35047;37.588;-122.048;2022-11-15T06:50:28;10.30;99.90
49222;DHT22;35047;37.588;-122.048;2022-11-15T06:52:54;10.30;99.90
49222;DHT22;35047;37.588;-122.048;2022-11-15T06:55:21;10.30;99.90
49222;DHT22;35047;37.588;-122.048;2022-11-15T06:57:51;10.30;99.90
49222;DHT22;35047;37.588;-122.048;2022-11-15T07:00:20;10.30;99.90
49222;DHT22;35047;37.588;-122.048;2022-11-15T07:02:47;10.30;99.90
49222;DHT22;35047;37.588;-122.048;2022-11-15T07:05:15;10.20;99.90
49222;DHT22;35047;37.588;-122.048;2022-11-15T07:07:41;10.30;99.90
49222;DHT22;35047;37.588;-122.048;2022-11-15T07:10:09;10.20;99.90
49222;DHT22;35047;37.588;-122.048;2022-11-15T07:12:36;10.20;99.90
49222;DHT22;35047;37.588;-122.048;2022-11-15T07:15:04;10.20;99.90
49222;DHT22;35047;37.588;-122.048;2022-11-15T07:17:32;10.10;99.90
49222;DHT22;35047;37.588;-122.048;2022-11-15T07:19:59;10.10;99.90
49222;DHT22;35047;37.588;-122.048;2022-11-15T07:22:26;10.10;99.90
49222;DHT22;35047;37.588;-122.048;2022-11-15T07:24:53;10.10;99.90
49222;DHT22;35047;37.588;-122.048;2022-11-15T07:27:19;10.10;99.90
49222;DHT22;35047;37.588;-122.048;2022-11-15T07:29:46;10.00;99.90
49222;DHT22;35047;37.588;-122.048;2022-11-15T07:32:13;10.00;99.90
49222;DHT22;35047;37.588;-122.048;2022-11-15T07:34:40;10.00;99.90
49222;DHT22;35047;37.588;-122.048;2022-11-15T07:37:06;10.00;99.90
49222;DHT22;35047;37.588;-122.048;2022-11-15T07:39:33;10.00;99.90
49222;DHT22;35047;37.588;-122.048;2022-11-15T07:42:00;9.90;99.90
49222;DHT22;35047;37.588;-122.048;2022-11-15T07:44:45;9.90;99.90
49222;DHT22;35047;37.588;-122.048;2022-11-15T07:47:12;9.90;99.90
49222;DHT22;35047;37.588;-122.048;2022-11-15T07:49:39;9.80;99.90
49222;DHT22;35047;37.588;-122.048;2022-11-15T07:52:06;9.80;99.90
49222;DHT22;35047;37.588;-122.048;2022-11-15T07:54:32;9.80;99.90
49222;DHT22;35047;37.588;-122.048;2022-11-15T07:56:59;9.70;99.90
49222;DHT22;35047;37.588;-122.048;2022-11-15T07:59:26;9.70;99.90
49222;DHT22;35047;37.588;-122.048;2022-11-15T08:01:52;9.60;99.90
49222;DHT22;35047;37.588;-122.048;2022-11-15T08:04:19;9.60;99.90
49222;DHT22;35047;37.588;-122.048;2022-11-15T08:06:46;9.60;99.90
49222;DHT22;35047;37.588;-122.048;2022-11-15T08:09:13;9.50;99.90
49222;DHT22;35047;37.588;-122.048;2022-11-15T08:11:39;9.50;99.90
49222;DHT22;35047;37.588;-122.048;2022-11-15T08:14:06;9.50;99.90
49222;DHT22;35047;37.588;-122.048;2022-11-15T08:16:33;9.40;99.90
49222;DHT22;35047;37.588;-122.048;2022-11-15T08:18:59;9.40;99.90
49222;DHT22;35047;37.588;-122.048;2022-11-15T08:21:26;9.30;99.90
49222;DHT22;35047;37.588;-122.048;2022-11-15T08:23:52;9.30;99.90
49222;DHT22;35047;37.588;-122.048;2022-11-15T08:26:20;9.30;99.90
49222;DHT22;35047;37.588;-122.048;2022-11-15T08:28:47;9.30;99.90
49222;DHT22;35047;37.588;-122.048;2022-11-15T08:31:15;9.20;99.90
49222;DHT22;35047;37.588;-122.048;2022-11-15T08:33:43;9.20;99.90
49222;DHT22;35047;37.588;-122.048;2022-11-15T08:36:15;9.20;99.90
49222;DHT22;35047;37.588;-122.048;2022-11-15T08:38:44;9.10;99.90
49222;DHT22;35047;37.588;-122.048;2022-11-15T08:41:16;9.10;99.90
49222;DHT22;35047;37.588;-122.048;2022-11-15T08:43:45;9.10;99.90
49222;DHT22;35047;37.588;-122.048;2022-11-15T08:46:14;9.10;99.90
49222;DHT22;35047;37.588;-122.048;2022-11-15T08:48:40;9.00;99.90
49222;DHT22;35047;37.588;-122.048;2022-11-15T08:51:07;9.00;99.90
49222;DHT22;35047;37.588;-122.048;2022-11-15T08:53:34;9.00;99.90
49222;DHT22;35047;37.588;-122.048;2022-11-15T08:56:01;8.90;99.90
49222;DHT22;35047;37.588;-122.048;2022-11-15T08:58:28;8.90;99.90
49222;DHT22;35047;37.588;-122.048;2022-11-15T09:00:55;8.90;99.90
49222;DHT22;35047;37.588;-122.048;2022-11-15T09:03:21;8.90;99.90
49222;DHT22;35047;37.588;-122.048;2022-11-15T09:05:48;8.90;99.90
49222;DHT22;35047;37.588;-122.048;2022-11-15T09:08:19;8.90;99.90
49222;DHT22;35047;37.588;-122.048;2022-11-15T09:10:46;8.80;99.90
49222;DHT22;35047;37.588;-122.048;2022-11-15T09:13:12;8.80;99.90
49222;DHT22;35047;37.588;-122.048;2022-11-15T09:15:39;8.80;99.90
49222;DHT22;35047;37.588;-122.048;2022-11-15T09:18:07;8.80;99.90
49222;DHT22;35047;37.588;-122.048;2022-11-15T09:20:34;8.70;99.90
49222;DHT22;35047;37.588;-122.048;2022-11-15T09:23:02;8.70;99.90
49222;DHT22;35047;37.588;-122.048;2022-11-15T09:25:31;8.70;99.90
49222;DHT22;35047;37.588;-122.048;2022-11-15T09:27:58;8.60;99.90
49222;DHT22;35047;37.588;-122.048;2022-11-15T09:30:26;8.60;99.90
49222;DHT22;35047;37.588;-122.048;2022-11-15T09:32:53;8.60;99.90
49222;DHT22;35047;37.588;-122.048;2022-11-15T09:35:21;8.50;99.90
49222;DHT22;35047;37.588;-122.048;2022-11-15T09:37:47;8.50;99.90
49222;DHT22;35047;37.588;-122.048;2022-11-15T09:40:16;8.50;99.90
49222;DHT22;35047;37.588;-122.048;2022-11-15T09:48:07;8.40;99.90
49222;DHT22;35047;37.588;-122.048;2022-11-15T09:50:51;8.40;99.90
49222;DHT22;35047;37.588;-122.048;2022-11-15T09:56:20;8.30;99.90
49222;DHT22;35047;37.588;-122.048;2022-11-15T10:04:22;8.20;99.90
49222;DHT22;35047;37.588;-122.048;2022-11-15T10:07:14;8.20;99.90
49222;DHT22;35047;37.588;-122.048;2022-11-15T10:10:02;8.10;99.90
49222;DHT22;35047;37.588;-122.048;2022-11-15T10:12:31;8.10;99.90
49222;DHT22;35047;37.588;-122.048;2022-11-15T10:15:06;8.10;99.90
49222;DHT22;35047;37.588;-122.048;2022-11-15T10:20:30;8.00;99.90
49222;DHT22;35047;37.588;-122.048;2022-11-15T10:23:06;8.00;99.90
49222;DHT22;35047;37.588;-122.048;2022-11-15T10:25:36;8.00;99.90
49222;DHT22;35047;37.588;-122.048;2022-11-15T10:28:13;7.90;99.90
49222;DHT22;35047;37.588;-122.048;2022-11-15T10:30:47;7.90;99.90
49222;DHT22;35047;37.588;-122.048;2022-11-15T10:33:35;7.90;99.90
49222;DHT22;35047;37.588;-122.048;2022-11-15T10:41:17;7.80;99.90
49222;DHT22;35047;37.588;-122.048;2022-11-15T10:43:44;7.80;99.90
49222;DHT22;35047;37.588;-122.048;2022-11-15T10:46:22;7.80;99.90
49222;DHT22;35047;37.588;-122.048;2022-11-15T10:48:49;7.70;99.90
49222;DHT22;35047;37.588;-122.048;2022-11-15T10:51:27;7.70;99.90
49222;DHT22;35047;37.588;-122.048;2022-11-15T10:53:58;7.70;99.90
49222;DHT22;35047;37.588;-122.048;2022-11-15T10:56:26;7.60;99.90
49222;DHT22;35047;37.588;-122.048;2022-11-15T10:58:56;7.60;99.90
49222;DHT22;35047;37.588;-122.048;2022-11-15T11:01:25;7.60;99.90
49222;DHT22;35047;37.588;-122.048;2022-11-15T11:04:06;7.60;99.90
49222;DHT22;35047;37.588;-122.048;2022-11-15T11:06:55;7.50;99.90
49222;DHT22;35047;37.588;-122.048;2022-11-15T11:11:55;7.50;99.90
49222;DHT22;35047;37.588;-122.048;2022-11-15T11:14:31;7.50;99.90
49222;DHT22;35047;37.588;-122.048;2022-11-15T11:20:29;7.40;99.90
49222;DHT22;35047;37.588;-122.048;2022-11-15T11:23:41;7.40;99.90
49222;DHT22;35047;37.588;-122.048;2022-11-15T11:27:08;7.40;99.90
49222;DHT22;35047;37.588;-122.048;2022-11-15T11:29:20;7.30;99.90
49222;DHT22;35047;37.588;-122.048;2022-11-15T11:31:52;7.30;99.90
49222;DHT22;35047;37.588;-122.048;2022-11-15T11:37:14;7.30;99.90
49222;DHT22;35047;37.588;-122.048;2022-11-15T11:48:08;7.20;99.90
49222;DHT22;35047;37.588;-122.048;2022-11-15T11:50:38;7.10;99.90
49222;DHT22;35047;37.588;-122.048;2022-11-15T11:53:25;7.10;99.90
49222;DHT22;35047;37.588;-122.048;2022-11-15T11:55:57;7.10;99.90
49222;DHT22;35047;37.588;-122.048;2022-11-15T11:58:27;7.10;99.90
49222;DHT22;35047;37.588;-122.048;2022-11-15T12:01:17;7.00;99.90
49222;DHT22;35047;37.588;-122.048;2022-11-15T12:03:56;7.00;99.90
49222;DHT22;35047;37.588;-122.048;2022-11-15T12:09:16;7.00;99.90
49222;DHT22;35047;37.588;-122.048;2022-11-15T12:14:42;6.90;99.90
49222;DHT22;35047;37.588;-122.048;2022-11-15T12:17:11;6.90;99.90
49222;DHT22;35047;37.588;-122.048;2022-11-15T12:19:38;6.90;99.90
49222;DHT22;35047;37.588;-122.048;2022-11-15T12:22:19;6.90;99.90
49222;DHT22;35047;37.588;-122.048;2022-11-15T12:25:16;6.80;99.90
49222;DHT22;35047;37.588;-122.048;2022-11-15T12:28:00;6.80;99.90
49222;DHT22;35047;37.588;-122.048;2022-11-15T12:30:44;6.80;99.90
49222;DHT22;35047;37.588;-122.048;2022-11-15T12:33:31;6.80;99.90
49222;DHT22;35047;37.588;-122.048;2022-11-15T12:36:01;6.70;99.90
49222;DHT22;35047;37.588;-122.048;2022-11-15T12:39:05;6.70;99.90
49222;DHT22;35047;37.588;-122.048;2022-11-15T12:41:37;6.70;99.90
49222;DHT22;35047;37.588;-122.048;2022-11-15T12:44:10;6.70;99.90
49222;DHT22;35047;37.588;-122.048;2022-11-15T12:52:05;6.70;99.90
49222;DHT22;35047;37.588;-122.048;2022-11-15T12:59:52;6.60;99.90
49222;DHT22;35047;37.588;-122.048;2022-11-15T13:10:30;6.60;99.90
49222;DHT22;35047;37.588;-122.048;2022-11-15T13:12:57;6.50;99.90
49222;DHT22;35047;37.588;-122.048;2022-11-15T13:15:56;6.50;99.90
49222;DHT22;35047;37.588;-122.048;2022-11-15T13:18:39;6.50;99.90
49222;DHT22;35047;37.588;-122.048;2022-11-15T13:21:23;6.50;99.90
49222;DHT22;35047;37.588;-122.048;2022-11-15T13:24:16;6.50;99.90
49222;DHT22;35047;37.588;-122.048;2022-11-15T13:26:43;6.50;99.90
49222;DHT22;35047;37.588;-122.048;2022-11-15T13:29:18;6.50;99.90
49222;DHT22;35047;37.588;-122.048;2022-11-15T13:31:45;6.50;99.90
49222;DHT22;35047;37.588;-122.048;2022-11-15T13:34:26;6.40;99.90
49222;DHT22;35047;37.588;-122.048;2022-11-15T13:36:53;6.40;99.90
49222;DHT22;35047;37.588;-122.048;2022-11-15T13:39:30;6.40;99.90
49222;DHT22;35047;37.588;-122.048;2022-11-15T13:41:58;6.40;99.90
49222;DHT22;35047;37.588;-122.048;2022-11-15T13:44:32;6.40;99.90
49222;DHT22;35047;37.588;-122.048;2022-11-15T13:47:12;6.30;99.90
49222;DHT22;35047;37.588;-122.048;2022-11-15T13:49:40;6.30;99.90
49222;DHT22;35047;37.588;-122.048;2022-11-15T13:52:14;6.30;99.90
49222;DHT22;35047;37.588;-122.048;2022-11-15T13:55:02;6.40;99.90
49222;DHT22;35047;37.588;-122.048;2022-11-15T14:00:38;6.30;99.90
49222;DHT22;35047;37.588;-122.048;2022-11-15T14:03:21;6.30;99.90
49222;DHT22;35047;37.588;-122.048;2022-11-15T14:06:05;6.30;99.90
49222;DHT22;35047;37.588;-122.048;2022-11-15T14:08:38;6.20;99.90
49222;DHT22;35047;37.588;-122.048;2022-11-15T14:11:11;6.20;99.90
49222;DHT22;35047;37.588;-122.048;2022-11-15T14:13:38;6.10;99.90
49222;DHT22;35047;37.588;-122.048;2022-11-15T14:16:20;6.20;99.90
49222;DHT22;35047;37.588;-122.048;2022-11-15T14:18:50;6.20;99.90
49222;DHT22;35047;37.588;-122.048;2022-11-15T14:21:19;6.20;99.90
49222;DHT22;35047;37.588;-122.048;2022-11-15T14:23:46;6.10;99.90
49222;DHT22;35047;37.588;-122.048;2022-11-15T14:26:31;6.10;99.90
49222;DHT22;35047;37.588;-122.048;2022-11-15T14:29:27;6.10;99.90
49222;DHT22;35047;37.588;-122.048;2022-11-15T14:32:16;6.10;99.90
49222;DHT22;35047;37.588;-122.048;2022-11-15T14:34:42;6.10;99.90
49222;DHT22;35047;37.588;-122.048;2022-11-15T14:37:27;6.10;99.90
49222;DHT22;35047;37.588;-122.048;2022-11-15T14:39:55;6.10;99.90
49222;DHT22;35047;37.588;-122.048;2022-11-15T14:42:24;6.00;99.90
49222;DHT22;35047;37.588;-122.048;2022-11-15T14:44:51;6.00;99.90
49222;DHT22;35047;37.588;-122.048;2022-11-15T14:47:19;6.00;99.90
49222;DHT22;35047;37.588;-122.048;2022-11-15T14:49:46;6.00;99.90
49222;DHT22;35047;37.588;-122.048;2022-11-15T14:52:33;6.00;99.90
49222;DHT22;35047;37.588;-122.048;2022-11-15T14:55:02;6.00;99.90
49222;DHT22;35047;37.588;-122.048;2022-11-15T14:57:30;6.00;99.90
49222;DHT22;35047;37.588;-122.048;2022-11-15T14:59:57;6.00;99.90
49222;DHT22;35047;37.588;-122.048;2022-11-15T15:02:25;6.00;99.90
49222;DHT22;35047;37.588;-122.048;2022-11-15T15:04:53;6.00;99.90
49222;DHT22;35047;37.588;-122.048;2022-11-15T15:07:19;6.00;99.90
49222;DHT22;35047;37.588;-122.048;2022-11-15T15:09:47;6.00;99.90
49222;DHT22;35047;37.588;-122.048;2022-11-15T15:12:21;5.90;99.90
49222;DHT22;35047;37.588;-122.048;2022-11-15T15:14:50;5.90;99.90
49222;DHT22;35047;37.588;-122.048;2022-11-15T15:17:17;6.00;99.90
49222;DHT22;35047;37.588;-122.048;2022-11-15T15:19:43;5.90;99.90
49222;DHT22;35047;37.588;-122.048;2022-11-15T15:22:15;5.90;99.90
49222;DHT22;35047;37.588;-122.048;2022-11-15T15:24:45;5.90;99.90
49222;DHT22;35047;37.588;-122.048;2022-11-15T15:27:13;5.90;99.90
49222;DHT22;35047;37.588;-122.048;2022-11-15T15:29:40;6.00;99.90
49222;DHT22;35047;37.588;-122.048;2022-11-15T15:32:07;6.00;99.90
49222;DHT22;35047;37.588;-122.048;2022-11-15T15:34:34;6.00;99.90
49222;DHT22;35047;37.588;-122.048;2022-11-15T15:37:22;6.00;99.90
49222;DHT22;35047;37.588;-122.048;2022-11-15T15:39:50;6.00;99.90
49222;DHT22;35047;37.588;-122.048;2022-11-15T15:42:19;6.10;99.90
49222;DHT22;35047;37.588;-122.048;2022-11-15T15:44:46;6.10;99.90
49222;DHT22;35047;37.588;-122.048;2022-11-15T15:47:19;6.10;99.90
49222;DHT22;35047;37.588;-122.048;2022-11-15T15:49:46;6.10;99.90
49222;DHT22;35047;37.588;-122.048;2022-11-15T15:52:13;6.10;99.90
49222;DHT22;35047;37.588;-122.048;2022-11-15T15:54:41;6.10;99.90
49222;DHT22;35047;37.588;-122.048;2022-11-15T15:57:10;6.20;99.90
49222;DHT22;35047;37.588;-122.048;2022-11-15T15:59:37;6.20;99.90
49222;DHT22;35047;37.588;-122.048;2022-11-15T16:02:04;6.30;99.90
49222;DHT22;35047;37.588;-122.048;2022-11-15T16:04:31;6.40;99.90
49222;DHT22;35047;37.588;-122.048;2022-11-15T16:07:01;6.40;99.90
49222;DHT22;35047;37.588;-122.048;2022-11-15T16:09:30;6.40;99.90
49222;DHT22;35047;37.588;-122.048;2022-11-15T16:12:15;6.60;99.90
49222;DHT22;35047;37.588;-122.048;2022-11-15T16:14:43;6.60;99.90
49222;DHT22;35047;37.588;-122.048;2022-11-15T16:17:17;6.80;99.90
49222;DHT22;35047;37.588;-122.048;2022-11-15T16:19:45;6.90;99.90
49222;DHT22;35047;37.588;-122.048;2022-11-15T16:22:12;7.00;99.90
49222;DHT22;35047;37.588;-122.048;2022-11-15T16:24:38;7.20;99.90
49222;DHT22;35047;37.588;-122.048;2022-11-15T16:27:09;7.50;99.90
49222;DHT22;35047;37.588;-122.048;2022-11-15T16:29:36;7.80;99.90
49222;DHT22;35047;37.588;-122.048;2022-11-15T16:32:04;8.10;99.90
49222;DHT22;35047;37.588;-122.048;2022-11-15T16:34:30;8.50;99.90
49222;DHT22;35047;37.588;-122.048;2022-11-15T16:36:56;8.90;99.90
49222;DHT22;35047;37.588;-122.048;2022-11-15T16:39:23;9.30;99.90
49222;DHT22;35047;37.588;-122.048;2022-11-15T16:41:50;9.70;99.90
49222;DHT22;35047;37.588;-122.048;2022-11-15T16:44:17;10.00;99.90
49222;DHT22;35047;37.588;-122.048;2022-11-15T16:46:44;10.40;99.90
49222;DHT22;35047;37.588;-122.048;2022-11-15T16:49:26;10.70;99.90
49222;DHT22;35047;37.588;-122.048;2022-11-15T16:51:52;11.10;99.90